sensor_id;sensor_type;location;lat;lon;timestamp;pressure;altitude;pressure_sealevel;temperature;humidity
11448;BME280;43755;49.736;8.734;2023-03-19T00:00:54;97548.28;;;8.40;100.00
11448;BME280;43755;49.736;8.734;2023-03-19T00:02:55;97543.97;;;8.37;100.00
11448;BME280;43755;49.736;8.734;2023-03-19T00:04:57;97552.84;;;8.36;100.00
11448;BME280;43755;49.736;8.734;2023-03-19T00:06:59;97553.56;;;8.40;100.00
11448;BME280;43755;49.736;8.734;2023-03-19T00:09:01;97553.41;;;8.43;100.00
11448;BME280;43755;49.736;8.734;2023-03-19T00:11:05;97549.84;;;8.44;100.00
11448;BME280;43755;49.736;8.734;2023-03-19T00:13:06;97555.28;;;8.41;100.00
11448;BME280;43755;49.736;8.734;2023-03-19T00:15:10;97552.44;;;8.45;100.00
11448;BME280;43755;49.736;8.734;2023-03-19T00:17:13;97544.28;;;8.51;100.00
11448;BME280;43755;49.736;8.734;2023-03-19T00:19:14;97557.56;;;8.48;100.00
11448;BME280;43755;49.736;8.734;2023-03-19T00:21:16;97563.03;;;8.44;100.00
11448;BME280;43755;49.736;8.734;2023-03-19T00:23:19;97564.03;;;8.41;100.00
11448;BME280;43755;49.736;8.734;2023-03-19T00:25:20;97561.25;;;8.44;100.00
11448;BME280;43755;49.736;8.734;2023-03-19T00:27:21;97555.88;;;8.47;100.00
11448;BME280;43755;49.736;8.734;2023-03-19T00:29:23;97559.38;;;8.48;100.00
11448;BME280;43755;49.736;8.734;2023-03-19T00:31:25;97559.28;;;8.49;100.00
11448;BME280;43755;49.736;8.734;2023-03-19T00:33:27;97557.72;;;8.45;100.00
11448;BME280;43755;49.736;8.734;2023-03-19T00:35:28;97559.53;;;8.43;100.00
11448;BME280;43755;49.736;8.734;2023-03-19T00:37:30;97553.56;;;8.40;100.00
11448;BME280;43755;49.736;8.734;2023-03-19T00:39:33;97548.13;;;8.43;100.00
11448;BME280;43755;49.736;8.734;2023-03-19T00:41:34;97562.31;;;8.40;100.00
11448;BME280;43755;49.736;8.734;2023-03-19T00:43:36;97557.09;;;8.39;100.00
11448;BME280;43755;49.736;8.734;2023-03-19T00:45:37;97551.72;;;8.42;100.00
11448;BME280;43755;49.736;8.734;2023-03-19T00:47:39;97552.75;;;8.38;100.00
11448;BME280;43755;49.736;8.734;2023-03-19T00:49:41;97557.91;;;8.41;100.00
11448;BME280;43755;49.736;8.734;2023-03-19T00:51:42;97551.84;;;8.39;100.00
11448;BME280;43755;49.736;8.734;2023-03-19T00:53:44;97552.63;;;8.41;100.00
11448;BME280;43755;49.736;8.734;2023-03-19T00:55:47;97560.66;;;8.38;100.00
11448;BME280;43755;49.736;8.734;2023-03-19T00:57:49;97554.78;;;8.31;100.00
11448;BME280;43755;49.736;8.734;2023-03-19T00:59:50;97558.34;;;8.30;100.00
11448;BME280;43755;49.736;8.734;2023-03-19T01:01:51;97555.84;;;8.26;100.00
11448;BME280;43755;49.736;8.734;2023-03-19T01:03:53;97554.88;;;8.28;100.00
11448;BME280;43755;49.736;8.734;2023-03-19T01:05:55;97559.34;;;8.26;100.00
11448;BME280;43755;49.736;8.734;2023-03-19T01:07:57;97559.19;;;8.31;100.00
11448;BME280;43755;49.736;8.734;2023-03-19T01:09:59;97557.00;;;8.42;100.00
11448;BME280;43755;49.736;8.734;2023-03-19T01:12:01;97556.19;;;8.40;100.00
11448;BME280;43755;49.736;8.734;2023-03-19T01:14:04;97558.81;;;8.40;100.00
11448;BME280;43755;49.736;8.734;2023-03-19T01:16:06;97553.84;;;8.54;100.00
11448;BME280;43755;49.736;8.734;2023-03-19T01:18:08;97553.56;;;8.60;100.00
11448;BME280;43755;49.736;8.734;2023-03-19T01:20:11;97546.41;;;8.63;100.00
11448;BME280;43755;49.736;8.734;2023-03-19T01:22:13;97543.34;;;8.73;100.00
11448;BME280;43755;49.736;8.734;2023-03-19T01:24:15;97548.13;;;8.85;100.00
11448;BME280;43755;49.736;8.734;2023-03-19T01:26:17;97542.19;;;9.00;100.00
11448;BME280;43755;49.736;8.734;2023-03-19T01:28:20;97545.25;;;9.30;100.00
11448;BME280;43755;49.736;8.734;2023-03-19T01:30:22;97544.22;;;9.53;96.21
11448;BME280;43755;49.736;8.734;2023-03-19T01:32:23;97549.34;;;9.74;92.25
11448;BME280;43755;49.736;8.734;2023-03-19T01:34:24;97555.22;;;9.81;92.27
11448;BME280;43755;49.736;8.734;2023-03-19T01:36:26;97542.94;;;9.80;92.69
11448;BME280;43755;49.736;8.734;2023-03-19T01:38:28;97546.66;;;9.76;91.96
11448;BME280;43755;49.736;8.734;2023-03-19T01:40:29;97540.22;;;9.81;90.00
11448;BME280;43755;49.736;8.734;2023-03-19T01:42:32;97547.34;;;9.98;85.86
11448;BME280;43755;49.736;8.734;2023-03-19T01:44:36;97544.56;;;10.20;82.10
11448;BME280;43755;49.736;8.734;2023-03-19T01:46:38;97546.69;;;10.31;81.69
11448;BME280;43755;49.736;8.734;2023-03-19T01:48:42;97549.41;;;10.29;82.59
11448;BME280;43755;49.736;8.734;2023-03-19T01:50:46;97553.78;;;9.93;91.41
11448;BME280;43755;49.736;8.734;2023-03-19T01:52:49;97547.47;;;9.39;99.79
11448;BME280;43755;49.736;8.734;2023-03-19T01:54:52;97547.19;;;9.06;100.00
11448;BME280;43755;49.736;8.734;2023-03-19T01:56:57;97545.97;;;8.94;100.00
11448;BME280;43755;49.736;8.734;2023-03-19T01:59:03;97537.56;;;8.85;100.00
11448;BME280;43755;49.736;8.734;2023-03-19T02:01:08;97542.66;;;8.69;100.00
11448;BME280;43755;49.736;8.734;2023-03-19T02:03:09;97546.25;;;8.67;100.00
11448;BME280;43755;49.736;8.734;2023-03-19T02:05:13;97548.59;;;8.74;100.00
11448;BME280;43755;49.736;8.734;2023-03-19T02:07:21;97544.63;;;8.64;100.00
11448;BME280;43755;49.736;8.734;2023-03-19T02:09:23;97543.88;;;8.60;100.00
11448;BME280;43755;49.736;8.734;2023-03-19T02:11:26;97544.34;;;8.50;100.00
11448;BME280;43755;49.736;8.734;2023-03-19T02:13:28;97552.63;;;8.41;100.00
11448;BME280;43755;49.736;8.734;2023-03-19T02:15:29;97549.81;;;8.45;100.00
11448;BME280;43755;49.736;8.734;2023-03-19T02:17:32;97547.41;;;8.39;100.00
11448;BME280;43755;49.736;8.734;2023-03-19T02:19:39;97554.34;;;8.42;100.00
11448;BME280;43755;49.736;8.734;2023-03-19T02:21:43;97544.69;;;8.42;100.00
11448;BME280;43755;49.736;8.734;2023-03-19T02:23:46;97545.66;;;8.40;100.00
11448;BME280;43755;49.736;8.734;2023-03-19T02:26:02;97547.66;;;8.33;100.00
11448;BME280;43755;49.736;8.734;2023-03-19T02:28:05;97561.19;;;8.24;100.00
11448;BME280;43755;49.736;8.734;2023-03-19T02:30:20;97557.09;;;8.17;100.00
11448;BME280;43755;49.736;8.734;2023-03-19T02:32:22;97560.69;;;8.14;100.00
11448;BME280;43755;49.736;8.734;2023-03-19T02:34:35;97560.88;;;8.10;100.00
11448;BME280;43755;49.736;8.734;2023-03-19T02:36:40;97559.22;;;8.07;100.00
11448;BME280;43755;49.736;8.734;2023-03-19T02:38:43;97559.53;;;8.00;100.00
11448;BME280;43755;49.736;8.734;2023-03-19T02:40:49;97555.63;;;7.88;100.00
11448;BME280;43755;49.736;8.734;2023-03-19T02:42:54;97564.19;;;7.93;100.00
11448;BME280;43755;49.736;8.734;2023-03-19T02:44:55;97565.44;;;8.06;100.00
11448;BME280;43755;49.736;8.734;2023-03-19T02:46:57;97556.84;;;8.23;100.00
11448;BME280;43755;49.736;8.734;2023-03-19T02:48:58;97571.69;;;8.47;100.00
11448;BME280;43755;49.736;8.734;2023-03-19T02:51:00;97565.31;;;8.73;100.00
11448;BME280;43755;49.736;8.734;2023-03-19T02:53:01;97572.78;;;9.04;100.00
11448;BME280;43755;49.736;8.734;2023-03-19T02:55:03;97569.66;;;9.35;95.52
11448;BME280;43755;49.736;8.734;2023-03-19T02:57:05;97565.13;;;9.57;92.09
11448;BME280;43755;49.736;8.734;2023-03-19T02:59:08;97566.19;;;9.91;88.02
11448;BME280;43755;49.736;8.734;2023-03-19T03:01:09;97563.59;;;10.08;87.75
11448;BME280;43755;49.736;8.734;2023-03-19T03:03:11;97567.28;;;10.05;88.18
11448;BME280;43755;49.736;8.734;2023-03-19T03:05:13;97560.91;;;10.09;86.08
11448;BME280;43755;49.736;8.734;2023-03-19T03:07:15;97568.97;;;10.25;85.43
11448;BME280;43755;49.736;8.734;2023-03-19T03:09:17;97564.72;;;10.22;85.96
11448;BME280;43755;49.736;8.734;2023-03-19T03:11:18;97571.63;;;10.25;85.11
11448;BME280;43755;49.736;8.734;2023-03-19T03:13:20;97566.13;;;10.30;84.93
11448;BME280;43755;49.736;8.734;2023-03-19T03:15:23;97563.25;;;10.34;84.04
11448;BME280;43755;49.736;8.734;2023-03-19T03:17:24;97568.09;;;10.43;82.85
11448;BME280;43755;49.736;8.734;2023-03-19T03:19:26;97572.22;;;10.49;82.40
11448;BME280;43755;49.736;8.734;2023-03-19T03:21:27;97572.09;;;10.52;81.74
11448;BME280;43755;49.736;8.734;2023-03-19T03:23:29;97576.13;;;10.59;81.08
11448;BME280;43755;49.736;8.734;2023-03-19T03:25:30;97583.84;;;10.63;80.54
11448;BME280;43755;49.736;8.734;2023-03-19T03:27:32;97580.19;;;10.66;80.80
11448;BME280;43755;49.736;8.734;2023-03-19T03:29:33;97580.03;;;10.69;80.00
11448;BME280;43755;49.736;8.734;2023-03-19T03:31:37;97578.25;;;10.70;80.45
11448;BME280;43755;49.736;8.734;2023-03-19T03:33:38;97582.38;;;10.75;80.56
11448;BME280;43755;49.736;8.734;2023-03-19T03:35:40;97584.16;;;10.75;80.56
11448;BME280;43755;49.736;8.734;2023-03-19T03:37:41;97579.50;;;10.80;80.29
11448;BME280;43755;49.736;8.734;2023-03-19T03:39:43;97579.25;;;10.84;79.85
11448;BME280;43755;49.736;8.734;2023-03-19T03:41:44;97579.25;;;10.84;80.30
11448;BME280;43755;49.736;8.734;2023-03-19T03:43:46;97575.00;;;10.82;80.71
11448;BME280;43755;49.736;8.734;2023-03-19T03:45:47;97580.81;;;10.71;82.31
11448;BME280;43755;49.736;8.734;2023-03-19T03:47:50;97587.03;;;10.70;81.99
11448;BME280;43755;49.736;8.734;2023-03-19T03:49:51;97585.25;;;10.71;82.41
11448;BME280;43755;49.736;8.734;2023-03-19T03:51:53;97593.44;;;10.66;82.81
11448;BME280;43755;49.736;8.734;2023-03-19T03:53:54;97587.19;;;10.67;82.97
11448;BME280;43755;49.736;8.734;2023-03-19T03:55:56;97580.03;;;10.69;82.75
11448;BME280;43755;49.736;8.734;2023-03-19T03:57:57;97596.84;;;10.68;82.58
11448;BME280;43755;49.736;8.734;2023-03-19T03:59:59;97586.00;;;10.73;81.87
11448;BME280;43755;49.736;8.734;2023-03-19T04:02:00;97587.66;;;10.75;82.42
11448;BME280;43755;49.736;8.734;2023-03-19T04:04:04;97589.94;;;10.83;81.32
11448;BME280;43755;49.736;8.734;2023-03-19T04:06:05;97590.78;;;10.83;81.03
11448;BME280;43755;49.736;8.734;2023-03-19T04:08:07;97593.44;;;10.83;81.52
11448;BME280;43755;49.736;8.734;2023-03-19T04:10:10;97594.38;;;10.82;81.83
11448;BME280;43755;49.736;8.734;2023-03-19T04:12:12;97598.00;;;10.80;82.06
11448;BME280;43755;49.736;8.734;2023-03-19T04:14:13;97589.84;;;10.84;81.76
11448;BME280;43755;49.736;8.734;2023-03-19T04:16:15;97593.22;;;10.88;82.04
11448;BME280;43755;49.736;8.734;2023-03-19T04:18:16;97590.38;;;10.91;81.27
11448;BME280;43755;49.736;8.734;2023-03-19T04:20:19;97588.78;;;10.88;81.29
11448;BME280;43755;49.736;8.734;2023-03-19T04:22:22;97598.94;;;10.96;82.38
11448;BME280;43755;49.736;8.734;2023-03-19T04:24:24;97600.13;;;10.90;82.01
11448;BME280;43755;49.736;8.734;2023-03-19T04:26:25;97595.13;;;10.84;82.63
11448;BME280;43755;49.736;8.734;2023-03-19T04:28:27;97600.34;;;10.86;82.83
11448;BME280;43755;49.736;8.734;2023-03-19T04:30:29;97596.59;;;10.90;82.12
11448;BME280;43755;49.736;8.734;2023-03-19T04:32:30;97598.50;;;10.88;82.67
11448;BME280;43755;49.736;8.734;2023-03-19T04:34:32;97599.66;;;10.82;83.28
11448;BME280;43755;49.736;8.734;2023-03-19T04:36:35;97603.25;;;10.81;83.56
11448;BME280;43755;49.736;8.734;2023-03-19T04:38:37;97610.25;;;10.82;83.39
11448;BME280;43755;49.736;8.734;2023-03-19T04:40:39;97602.63;;;10.76;84.58
11448;BME280;43755;49.736;8.734;2023-03-19T04:42:41;97600.34;;;10.68;84.70
11448;BME280;43755;49.736;8.734;2023-03-19T04:44:43;97607.41;;;10.68;85.95
11448;BME280;43755;49.736;8.734;2023-03-19T04:46:45;97605.00;;;10.63;87.89
11448;BME280;43755;49.736;8.734;2023-03-19T04:48:46;97607.03;;;10.58;87.67
11448;BME280;43755;49.736;8.734;2023-03-19T04:50:47;97610.81;;;10.53;88.26
11448;BME280;43755;49.736;8.734;2023-03-19T04:52:53;97615.38;;;10.49;88.69
11448;BME280;43755;49.736;8.734;2023-03-19T04:54:54;97620.69;;;10.49;88.07
11448;BME280;43755;49.736;8.734;2023-03-19T04:56:56;97623.56;;;10.45;88.26
11448;BME280;43755;49.736;8.734;2023-03-19T04:58:57;97627.56;;;10.35;89.57
11448;BME280;43755;49.736;8.734;2023-03-19T05:00:59;97623.56;;;10.26;89.81
11448;BME280;43755;49.736;8.734;2023-03-19T05:03:00;97625.06;;;10.32;89.18
11448;BME280;43755;49.736;8.734;2023-03-19T05:05:02;97623.44;;;10.29;89.54
11448;BME280;43755;49.736;8.734;2023-03-19T05:07:03;97627.69;;;10.32;89.06
11448;BME280;43755;49.736;8.734;2023-03-19T05:09:06;97621.16;;;10.21;89.87
11448;BME280;43755;49.736;8.734;2023-03-19T05:11:08;97623.84;;;10.20;89.50
11448;BME280;43755;49.736;8.734;2023-03-19T05:13:09;97625.63;;;10.19;89.58
11448;BME280;43755;49.736;8.734;2023-03-19T05:15:11;97631.09;;;10.16;90.74
11448;BME280;43755;49.736;8.734;2023-03-19T05:17:12;97626.97;;;10.09;90.77
11448;BME280;43755;49.736;8.734;2023-03-19T05:19:14;97625.47;;;10.04;91.56
11448;BME280;43755;49.736;8.734;2023-03-19T05:21:16;97630.75;;;10.04;92.98
11448;BME280;43755;49.736;8.734;2023-03-19T05:23:18;97624.84;;;9.99;93.88
11448;BME280;43755;49.736;8.734;2023-03-19T05:25:20;97626.91;;;9.92;95.33
11448;BME280;43755;49.736;8.734;2023-03-19T05:27:22;97621.03;;;9.85;95.26
11448;BME280;43755;49.736;8.734;2023-03-19T05:29:23;97623.63;;;9.87;95.14
11448;BME280;43755;49.736;8.734;2023-03-19T05:31:25;97633.16;;;9.90;95.38
11448;BME280;43755;49.736;8.734;2023-03-19T05:33:27;97628.97;;;9.85;96.63
11448;BME280;43755;49.736;8.734;2023-03-19T05:35:29;97622.97;;;9.82;98.31
11448;BME280;43755;49.736;8.734;2023-03-19T05:37:31;97625.03;;;9.75;99.33
11448;BME280;43755;49.736;8.734;2023-03-19T05:39:32;97636.31;;;9.79;98.83
11448;BME280;43755;49.736;8.734;2023-03-19T05:41:35;97631.94;;;9.78;99.52
11448;BME280;43755;49.736;8.734;2023-03-19T05:43:37;97633.66;;;9.79;98.51
11448;BME280;43755;49.736;8.734;2023-03-19T05:45:38;97628.09;;;9.85;98.46
11448;BME280;43755;49.736;8.734;2023-03-19T05:47:40;97625.34;;;9.88;97.06
11448;BME280;43755;49.736;8.734;2023-03-19T05:49:41;97632.06;;;9.95;96.58
11448;BME280;43755;49.736;8.734;2023-03-19T05:51:42;97632.06;;;9.95;96.31
11448;BME280;43755;49.736;8.734;2023-03-19T05:53:44;97633.75;;;9.96;96.84
11448;BME280;43755;49.736;8.734;2023-03-19T05:55:45;97648.91;;;9.93;98.01
11448;BME280;43755;49.736;8.734;2023-03-19T05:57:48;97648.47;;;9.83;99.57
11448;BME280;43755;49.736;8.734;2023-03-19T05:59:50;97650.44;;;9.78;100.00
11448;BME280;43755;49.736;8.734;2023-03-19T06:01:51;97659.59;;;9.71;100.00
11448;BME280;43755;49.736;8.734;2023-03-19T06:03:53;97656.16;;;9.69;100.00
11448;BME280;43755;49.736;8.734;2023-03-19T06:05:54;97661.44;;;9.69;100.00
11448;BME280;43755;49.736;8.734;2023-03-19T06:07:56;97657.59;;;9.76;100.00
11448;BME280;43755;49.736;8.734;2023-03-19T06:09:58;97657.31;;;9.82;100.00
11448;BME280;43755;49.736;8.734;2023-03-19T06:11:59;97653.75;;;9.83;100.00
11448;BME280;43755;49.736;8.734;2023-03-19T06:14:02;97666.88;;;9.84;99.97
11448;BME280;43755;49.736;8.734;2023-03-19T06:16:04;97675.59;;;9.86;99.15
11448;BME280;43755;49.736;8.734;2023-03-19T06:18:06;97677.97;;;9.93;99.13
11448;BME280;43755;49.736;8.734;2023-03-19T06:20:09;97672.75;;;9.91;99.47
11448;BME280;43755;49.736;8.734;2023-03-19T06:22:11;97670.63;;;9.99;98.06
11448;BME280;43755;49.736;8.734;2023-03-19T06:24:12;97672.34;;;10.00;98.24
11448;BME280;43755;49.736;8.734;2023-03-19T06:26:13;97682.81;;;10.02;98.07
11448;BME280;43755;49.736;8.734;2023-03-19T06:28:15;97680.06;;;10.05;98.27
11448;BME280;43755;49.736;8.734;2023-03-19T06:30:18;97680.56;;;10.13;97.70
11448;BME280;43755;49.736;8.734;2023-03-19T06:32:20;97682.09;;;10.18;96.71
11448;BME280;43755;49.736;8.734;2023-03-19T06:34:21;97685.50;;;10.20;96.44
11448;BME280;43755;49.736;8.734;2023-03-19T06:36:22;97681.09;;;10.21;97.21
11448;BME280;43755;49.736;8.734;2023-03-19T06:38:25;97683.72;;;10.21;96.77
11448;BME280;43755;49.736;8.734;2023-03-19T06:40:26;97681.81;;;10.24;95.85
11448;BME280;43755;49.736;8.734;2023-03-19T06:42:28;97684.09;;;10.32;95.66
11448;BME280;43755;49.736;8.734;2023-03-19T06:44:29;97683.03;;;10.36;94.04
11448;BME280;43755;49.736;8.734;2023-03-19T06:46:32;97684.31;;;10.46;94.02
11448;BME280;43755;49.736;8.734;2023-03-19T06:48:34;97685.94;;;10.49;95.36
11448;BME280;43755;49.736;8.734;2023-03-19T06:50:36;97677.72;;;10.55;95.35
11448;BME280;43755;49.736;8.734;2023-03-19T06:52:37;97676.50;;;10.62;93.10
11448;BME280;43755;49.736;8.734;2023-03-19T06:54:39;97686.00;;;10.66;91.59
11448;BME280;43755;49.736;8.734;2023-03-19T06:56:41;97684.19;;;10.66;91.03
11448;BME280;43755;49.736;8.734;2023-03-19T06:58:43;97690.00;;;10.75;90.57
11448;BME280;43755;49.736;8.734;2023-03-19T07:00:44;97694.00;;;10.83;90.27
11448;BME280;43755;49.736;8.734;2023-03-19T07:02:47;97692.75;;;10.90;89.79
11448;BME280;43755;49.736;8.734;2023-03-19T07:04:48;97698.53;;;10.98;91.80
11448;BME280;43755;49.736;8.734;2023-03-19T07:06:50;97693.63;;;11.08;93.78
11448;BME280;43755;49.736;8.734;2023-03-19T07:08:51;97703.06;;;11.14;94.77
11448;BME280;43755;49.736;8.734;2023-03-19T07:10:52;97702.59;;;11.23;92.90
11448;BME280;43755;49.736;8.734;2023-03-19T07:12:54;97709.38;;;11.28;90.75
11448;BME280;43755;49.736;8.734;2023-03-19T07:14:55;97705.81;;;11.46;87.76
11448;BME280;43755;49.736;8.734;2023-03-19T07:16:57;97701.13;;;11.52;84.18
11448;BME280;43755;49.736;8.734;2023-03-19T07:18:59;97701.69;;;11.58;86.09
11448;BME280;43755;49.736;8.734;2023-03-19T07:21:01;97708.06;;;11.71;86.93
11448;BME280;43755;49.736;8.734;2023-03-19T07:23:02;97706.06;;;11.76;85.89
11448;BME280;43755;49.736;8.734;2023-03-19T07:25:04;97701.97;;;11.86;86.87
11448;BME280;43755;49.736;8.734;2023-03-19T07:27:06;97708.81;;;11.90;85.29
11448;BME280;43755;49.736;8.734;2023-03-19T07:29:08;97713.66;;;12.00;84.61
11448;BME280;43755;49.736;8.734;2023-03-19T07:31:10;97707.56;;;11.98;82.92
11448;BME280;43755;49.736;8.734;2023-03-19T07:33:12;97714.81;;;12.11;82.33
11448;BME280;43755;49.736;8.734;2023-03-19T07:35:15;97712.44;;;12.22;82.20
11448;BME280;43755;49.736;8.734;2023-03-19T07:37:17;97708.06;;;12.37;84.73
11448;BME280;43755;49.736;8.734;2023-03-19T07:39:18;97717.41;;;12.44;83.41
11448;BME280;43755;49.736;8.734;2023-03-19T07:41:20;97706.91;;;12.58;83.53
11448;BME280;43755;49.736;8.734;2023-03-19T07:43:22;97714.19;;;12.70;80.38
11448;BME280;43755;49.736;8.734;2023-03-19T07:45:23;97711.28;;;12.75;83.62
11448;BME280;43755;49.736;8.734;2023-03-19T07:47:24;97713.41;;;12.84;82.10
11448;BME280;43755;49.736;8.734;2023-03-19T07:49:26;97713.16;;;12.89;80.64
11448;BME280;43755;49.736;8.734;2023-03-19T07:51:29;97719.06;;;12.94;81.00
11448;BME280;43755;49.736;8.734;2023-03-19T07:53:30;97725.41;;;13.07;79.70
11448;BME280;43755;49.736;8.734;2023-03-19T07:55:31;97720.44;;;13.01;80.96
11448;BME280;43755;49.736;8.734;2023-03-19T07:57:33;97722.41;;;12.97;80.27
11448;BME280;43755;49.736;8.734;2023-03-19T07:59:34;97718.28;;;13.07;82.37
11448;BME280;43755;49.736;8.734;2023-03-19T08:01:36;97718.97;;;13.11;80.21
11448;BME280;43755;49.736;8.734;2023-03-19T08:03:37;97723.34;;;13.28;81.82
11448;BME280;43755;49.736;8.734;2023-03-19T08:05:39;97716.66;;;13.36;80.10
11448;BME280;43755;49.736;8.734;2023-03-19T08:07:42;97718.22;;;13.25;76.63
11448;BME280;43755;49.736;8.734;2023-03-19T08:09:44;97715.00;;;13.34;77.21
11448;BME280;43755;49.736;8.734;2023-03-19T08:11:45;97721.09;;;13.20;73.84
11448;BME280;43755;49.736;8.734;2023-03-19T08:13:46;97725.84;;;13.15;73.31
11448;BME280;43755;49.736;8.734;2023-03-19T08:15:48;97723.69;;;13.06;73.65
11448;BME280;43755;49.736;8.734;2023-03-19T08:17:56;97725.84;;;13.15;74.79
11448;BME280;43755;49.736;8.734;2023-03-19T08:19:58;97727.75;;;13.13;73.20
11448;BME280;43755;49.736;8.734;2023-03-19T08:21:59;97723.75;;;13.04;72.15
11448;BME280;43755;49.736;8.734;2023-03-19T08:24:03;97720.94;;;13.07;75.68
11448;BME280;43755;49.736;8.734;2023-03-19T08:26:04;97718.66;;;13.17;74.09
11448;BME280;43755;49.736;8.734;2023-03-19T08:28:06;97727.19;;;13.22;74.53
11448;BME280;43755;49.736;8.734;2023-03-19T08:30:10;97730.66;;;13.38;78.76
11448;BME280;43755;49.736;8.734;2023-03-19T08:32:12;97728.97;;;13.37;71.92
11448;BME280;43755;49.736;8.734;2023-03-19T08:34:13;97725.22;;;13.56;75.61
11448;BME280;43755;49.736;8.734;2023-03-19T08:36:14;97723.38;;;13.72;70.10
11448;BME280;43755;49.736;8.734;2023-03-19T08:38:16;97731.66;;;13.81;68.24
11448;BME280;43755;49.736;8.734;2023-03-19T08:40:20;97724.09;;;13.89;68.74
11448;BME280;43755;49.736;8.734;2023-03-19T08:42:22;97723.47;;;13.84;68.79
11448;BME280;43755;49.736;8.734;2023-03-19T08:44:23;97722.56;;;14.00;68.24
11448;BME280;43755;49.736;8.734;2023-03-19T08:46:25;97724.78;;;14.07;67.75
11448;BME280;43755;49.736;8.734;2023-03-19T08:48:28;97719.22;;;13.96;65.21
11448;BME280;43755;49.736;8.734;2023-03-19T08:50:30;97728.06;;;13.97;66.67
11448;BME280;43755;49.736;8.734;2023-03-19T08:52:31;97726.38;;;13.96;67.05
11448;BME280;43755;49.736;8.734;2023-03-19T08:54:33;97727.97;;;13.84;66.92
11448;BME280;43755;49.736;8.734;2023-03-19T08:56:37;97736.50;;;13.75;68.22
11448;BME280;43755;49.736;8.734;2023-03-19T08:58:38;97745.41;;;13.74;70.96
11448;BME280;43755;49.736;8.734;2023-03-19T09:00:41;97741.00;;;13.88;72.42
11448;BME280;43755;49.736;8.734;2023-03-19T09:02:42;97730.19;;;14.06;71.13
11448;BME280;43755;49.736;8.734;2023-03-19T09:04:44;97737.38;;;14.04;65.65
11448;BME280;43755;49.736;8.734;2023-03-19T09:06:46;97740.72;;;14.21;67.99
11448;BME280;43755;49.736;8.734;2023-03-19T09:08:50;97737.03;;;14.24;63.58
11448;BME280;43755;49.736;8.734;2023-03-19T09:10:51;97734.38;;;14.24;66.18
11448;BME280;43755;49.736;8.734;2023-03-19T09:12:54;97742.16;;;14.27;63.25
11448;BME280;43755;49.736;8.734;2023-03-19T09:14:55;97739.97;;;14.33;66.78
11448;BME280;43755;49.736;8.734;2023-03-19T09:16:57;97739.41;;;14.28;62.74
11448;BME280;43755;49.736;8.734;2023-03-19T09:18:58;97742.16;;;14.27;64.57
11448;BME280;43755;49.736;8.734;2023-03-19T09:21:00;97749.97;;;14.30;64.31
11448;BME280;43755;49.736;8.734;2023-03-19T09:23:02;97752.06;;;14.25;63.67
11448;BME280;43755;49.736;8.734;2023-03-19T09:25:04;97749.56;;;14.22;65.69
11448;BME280;43755;49.736;8.734;2023-03-19T09:27:06;97743.97;;;14.26;67.10
11448;BME280;43755;49.736;8.734;2023-03-19T09:29:09;97746.38;;;14.45;66.12
11448;BME280;43755;49.736;8.734;2023-03-19T09:31:10;97753.81;;;14.54;63.38
11448;BME280;43755;49.736;8.734;2023-03-19T09:33:12;97740.03;;;14.48;60.90
11448;BME280;43755;49.736;8.734;2023-03-19T09:35:13;97742.88;;;14.59;62.77
11448;BME280;43755;49.736;8.734;2023-03-19T09:37:15;97748.47;;;14.40;61.05
11448;BME280;43755;49.736;8.734;2023-03-19T09:39:16;97744.09;;;14.39;62.35
11448;BME280;43755;49.736;8.734;2023-03-19T09:41:26;97738.22;;;14.48;64.95
11448;BME280;43755;49.736;8.734;2023-03-19T09:43:38;97735.25;;;14.53;67.08
11448;BME280;43755;49.736;8.734;2023-03-19T09:45:45;97743.16;;;14.54;63.25
11448;BME280;43755;49.736;8.734;2023-03-19T09:47:49;97740.19;;;14.45;64.92
11448;BME280;43755;49.736;8.734;2023-03-19T09:49:53;97742.47;;;14.37;63.23
11448;BME280;43755;49.736;8.734;2023-03-19T09:51:59;97746.38;;;14.45;64.28
11448;BME280;43755;49.736;8.734;2023-03-19T09:54:06;97746.16;;;14.34;64.42
11448;BME280;43755;49.736;8.734;2023-03-19T09:56:14;97737.78;;;14.26;65.14
11448;BME280;43755;49.736;8.734;2023-03-19T09:58:20;97742.22;;;14.41;65.07
11448;BME280;43755;49.736;8.734;2023-03-19T10:00:24;97744.19;;;14.52;62.77
11448;BME280;43755;49.736;8.734;2023-03-19T10:02:42;97744.97;;;14.54;63.51
11448;BME280;43755;49.736;8.734;2023-03-19T10:04:51;97750.94;;;14.57;60.13
11448;BME280;43755;49.736;8.734;2023-03-19T10:07:03;97756.06;;;14.74;61.01
11448;BME280;43755;49.736;8.734;2023-03-19T10:09:39;97756.03;;;14.89;59.25
11448;BME280;43755;49.736;8.734;2023-03-19T10:11:55;97748.97;;;15.02;58.36
11448;BME280;43755;49.736;8.734;2023-03-19T10:14:09;97758.94;;;15.12;56.57
11448;BME280;43755;49.736;8.734;2023-03-19T10:16:19;97754.97;;;15.32;57.88
11448;BME280;43755;49.736;8.734;2023-03-19T10:18:26;97761.00;;;15.22;54.48
11448;BME280;43755;49.736;8.734;2023-03-19T10:20:34;97754.78;;;15.35;56.50
11448;BME280;43755;49.736;8.734;2023-03-19T10:22:39;97755.09;;;15.43;55.72
11448;BME280;43755;49.736;8.734;2023-03-19T10:24:45;97753.69;;;15.52;57.41
11448;BME280;43755;49.736;8.734;2023-03-19T10:26:49;97748.31;;;15.66;52.60
11448;BME280;43755;49.736;8.734;2023-03-19T10:29:07;97749.63;;;15.98;55.96
11448;BME280;43755;49.736;8.734;2023-03-19T10:31:17;97745.25;;;16.10;56.66
11448;BME280;43755;49.736;8.734;2023-03-19T10:33:33;97748.03;;;16.34;52.38
11448;BME280;43755;49.736;8.734;2023-03-19T10:35:42;97739.06;;;16.35;50.89
11448;BME280;43755;49.736;8.734;2023-03-19T10:37:44;97732.44;;;16.53;52.73
11448;BME280;43755;49.736;8.734;2023-03-19T10:39:48;97736.31;;;16.49;50.41
11448;BME280;43755;49.736;8.734;2023-03-19T10:41:56;97731.16;;;16.59;52.46
11448;BME280;43755;49.736;8.734;2023-03-19T10:44:03;97735.00;;;16.67;52.07
11448;BME280;43755;49.736;8.734;2023-03-19T10:46:11;97735.13;;;16.53;52.29
11448;BME280;43755;49.736;8.734;2023-03-19T10:48:15;97731.03;;;16.73;52.52
11448;BME280;43755;49.736;8.734;2023-03-19T10:50:21;97734.88;;;16.82;49.17
11448;BME280;43755;49.736;8.734;2023-03-19T10:52:26;97739.66;;;17.02;50.72